createdAt,value
2016-01-26T00:00:07.076Z,0
2016-01-26T00:01:07.157Z,0
2016-01-26T00:02:07.206Z,0
2016-01-26T00:03:07.305Z,0
2016-01-26T00:04:07.136Z,0
2016-01-26T00:05:07.360Z,0
2016-01-26T00:06:07.458Z,0
2016-01-26T00:07:07.461Z,0
2016-01-26T00:08:07.527Z,0
2016-01-26T00:09:07.594Z,0
2016-01-26T00:10:07.629Z,0
2016-01-26T00:11:07.694Z,0
2016-01-26T00:12:07.759Z,0
2016-01-26T00:13:07.824Z,0
2016-01-26T00:14:07.842Z,0
2016-01-26T00:15:07.939Z,0
2016-01-26T00:16:07.989Z,0
2016-01-26T00:17:08.039Z,0
2016-01-26T00:18:08.074Z,0
2016-01-26T00:19:08.185Z,0
2016-01-26T00:20:08.204Z,0
2016-01-26T00:21:08.242Z,0
2016-01-26T00:22:08.308Z,0
2016-01-26T00:23:08.388Z,0
2016-01-26T00:24:08.407Z,0
2016-01-26T00:25:08.455Z,0
2016-01-26T00:26:08.537Z,0
2016-01-26T00:27:08.587Z,0
2016-01-26T00:28:08.653Z,0
2016-01-26T00:29:08.690Z,0
2016-01-26T00:30:08.771Z,0
2016-01-26T00:31:08.836Z,0
2016-01-26T00:32:08.870Z,0
2016-01-26T00:33:08.937Z,0
2016-01-26T00:34:09.018Z,0
2016-01-26T00:35:09.020Z,0
2016-01-26T00:36:09.071Z,0
2016-01-26T00:37:09.151Z,0
2016-01-26T00:38:09.235Z,0
2016-01-26T00:39:09.283Z,0
2016-01-26T00:40:09.318Z,0
2016-01-26T00:41:09.368Z,0
2016-01-26T00:42:09.417Z,0
2016-01-26T00:43:09.467Z,0
2016-01-26T00:44:09.549Z,0
2016-01-26T00:45:09.568Z,0
2016-01-26T00:46:09.649Z,0
2016-01-26T00:47:09.715Z,0
2016-01-26T00:48:09.732Z,0
2016-01-26T00:49:09.782Z,0
2016-01-26T00:50:09.865Z,0
2016-01-26T00:51:09.977Z,0
2016-01-26T00:52:09.949Z,0
2016-01-26T00:53:10.030Z,0
2016-01-26T00:54:10.097Z,0
2016-01-26T00:55:10.011Z,0
2016-01-26T00:56:10.187Z,0
2016-01-26T00:57:10.237Z,0
2016-01-26T00:58:10.319Z,0
2016-01-26T00:59:10.400Z,0
2016-01-26T01:00:10.403Z,0
2016-01-26T01:01:10.468Z,0
2016-01-26T01:02:10.534Z,0
2016-01-26T01:03:10.567Z,0
2016-01-26T01:04:10.648Z,0
2016-01-26T01:05:10.698Z,0
2016-01-26T01:06:10.843Z,0
2016-01-26T01:07:10.796Z,0
2016-01-26T01:08:10.833Z,0
2016-01-26T01:09:10.960Z,0
2016-01-26T01:10:11.013Z,0
2016-01-26T01:11:11.016Z,0
2016-01-26T01:12:11.080Z,0
2016-01-26T01:13:11.148Z,0
2016-01-26T01:14:11.198Z,0
2016-01-26T01:15:11.247Z,0
2016-01-26T01:16:11.314Z,0
2016-01-26T01:17:11.347Z,0
2016-01-26T01:18:11.397Z,0
2016-01-26T01:19:11.463Z,0
2016-01-26T01:20:11.543Z,0
2016-01-26T01:21:11.594Z,0
2016-01-26T01:22:11.611Z,0
2016-01-26T01:23:11.692Z,0
2016-01-26T01:24:11.742Z,0
2016-01-26T01:25:11.778Z,0
2016-01-26T01:26:11.913Z,0
2016-01-26T01:27:11.947Z,0
2016-01-26T01:28:11.935Z,0
2016-01-26T01:29:11.999Z,0
2016-01-26T01:30:12.081Z,0
2016-01-26T01:31:12.130Z,0
2016-01-26T01:32:12.179Z,0
2016-01-26T01:33:12.215Z,0
2016-01-26T01:34:12.326Z,0
2016-01-26T01:35:12.413Z,0
2016-01-26T01:36:12.386Z,0
2016-01-26T01:37:12.434Z,0
2016-01-26T01:38:12.531Z,0
2016-01-26T01:39:12.565Z,0
2016-01-26T01:40:12.617Z,0
2016-01-26T01:41:12.683Z,0
2016-01-26T01:42:12.749Z,0
2016-01-26T01:43:12.767Z,0
2016-01-26T01:44:12.098Z,0
2016-01-26T01:45:12.884Z,0
2016-01-26T01:46:12.964Z,0
2016-01-26T01:47:13.014Z,0
2016-01-26T01:48:12.892Z,0
2016-01-26T01:49:13.129Z,0
2016-01-26T01:50:13.194Z,0
2016-01-26T01:51:13.260Z,0
2016-01-26T01:52:13.294Z,0
2016-01-26T01:53:13.345Z,0
2016-01-26T01:54:13.395Z,0
2016-01-26T01:55:13.459Z,0
2016-01-26T01:56:13.354Z,0
2016-01-26T01:57:13.557Z,0
2016-01-26T01:58:13.638Z,0
2016-01-26T01:59:13.656Z,0
2016-01-26T02:00:13.723Z,0
2016-01-26T02:01:13.851Z,0
2016-01-26T02:02:13.822Z,0
2016-01-26T02:03:13.887Z,0
2016-01-26T02:04:13.952Z,0
2016-01-26T02:05:14.005Z,0
2016-01-26T02:06:14.054Z,0
2016-01-26T02:07:14.135Z,0
2016-01-26T02:08:14.170Z,0
2016-01-26T02:09:14.219Z,0
2016-01-26T02:10:14.284Z,0
2016-01-26T02:11:14.334Z,0
2016-01-26T02:12:14.414Z,0
2016-01-26T02:13:14.433Z,0
2016-01-26T02:14:14.515Z,0
2016-01-26T02:15:14.565Z,0
2016-01-26T02:16:14.645Z,0
2016-01-26T02:17:14.682Z,0
2016-01-26T02:18:14.731Z,0
2016-01-26T02:19:14.796Z,0
2016-01-26T02:20:14.832Z,0
2016-01-26T02:21:14.897Z,0
2016-01-26T02:22:15.010Z,0
2016-01-26T02:23:15.043Z,0
2016-01-26T02:24:15.077Z,0
2016-01-26T02:25:15.144Z,0
2016-01-26T02:26:15.161Z,0
2016-01-26T02:27:15.277Z,0
2016-01-26T02:28:15.311Z,0
2016-01-26T02:29:15.346Z,0
2016-01-26T02:30:15.379Z,0
2016-01-26T02:31:15.476Z,0
2016-01-26T02:32:15.496Z,0
2016-01-26T02:33:15.577Z,0
2016-01-26T02:34:15.657Z,0
2016-01-26T02:35:15.665Z,0
2016-01-26T02:36:15.746Z,0
2016-01-26T02:37:15.781Z,0
2016-01-26T02:38:15.831Z,0
2016-01-26T02:39:15.896Z,0
2016-01-26T02:40:15.947Z,0
2016-01-26T02:41:16.012Z,0
2016-01-26T02:42:16.062Z,0
2016-01-26T02:43:16.111Z,0
2016-01-26T02:44:16.161Z,0
2016-01-26T02:45:16.227Z,0
2016-01-26T02:46:16.277Z,0
2016-01-26T02:47:16.357Z,0
2016-01-26T02:48:16.391Z,0
2016-01-26T02:49:16.443Z,0
2016-01-26T02:50:16.555Z,0
2016-01-26T02:51:16.573Z,0
2016-01-26T02:52:16.609Z,0
2016-01-26T02:53:16.690Z,0
2016-01-26T02:54:16.755Z,0
2016-01-26T02:55:16.773Z,0
2016-01-26T02:56:16.841Z,0
2016-01-26T02:57:16.800Z,0
2016-01-26T02:58:16.958Z,0
2016-01-26T02:59:16.996Z,0
2016-01-26T03:00:17.061Z,0
2016-01-26T03:01:17.112Z,0
2016-01-26T03:02:17.176Z,0
2016-01-26T03:03:16.492Z,0
2016-01-26T03:04:17.293Z,0
2016-01-26T03:05:17.374Z,0
2016-01-26T03:06:17.377Z,0
2016-01-26T03:07:17.442Z,0
2016-01-26T03:08:17.539Z,0
2016-01-26T03:09:17.592Z,0
2016-01-26T03:10:17.610Z,0
2016-01-26T03:11:17.690Z,0
2016-01-26T03:12:17.724Z,0
2016-01-26T03:13:17.778Z,0
2016-01-26T03:14:17.843Z,0
2016-01-26T03:15:17.909Z,0
2016-01-26T03:16:17.959Z,0
2016-01-26T03:17:18.009Z,0
2016-01-26T03:18:18.059Z,0
2016-01-26T03:19:18.143Z,0
2016-01-26T03:20:18.177Z,0
2016-01-26T03:21:18.211Z,0
2016-01-26T03:22:18.293Z,0
2016-01-26T03:23:18.343Z,0
2016-01-26T03:24:18.393Z,0
2016-01-26T03:25:18.458Z,0
2016-01-26T03:26:18.525Z,0
2016-01-26T03:27:18.544Z,0
2016-01-26T03:28:18.438Z,0
2016-01-26T03:29:18.660Z,0
2016-01-26T03:30:18.756Z,0
2016-01-26T03:31:18.838Z,0
2016-01-26T03:32:18.716Z,0
2016-01-26T03:33:18.938Z,0
2016-01-26T03:34:18.957Z,0
2016-01-26T03:35:19.005Z,0
2016-01-26T03:36:19.073Z,0
2016-01-26T03:37:19.123Z,0
2016-01-26T03:38:19.203Z,0
2016-01-26T03:39:19.237Z,0
2016-01-26T03:40:19.306Z,0
2016-01-26T03:41:19.355Z,0
2016-01-26T03:42:19.404Z,0
2016-01-26T03:43:19.470Z,0
2016-01-26T03:44:19.535Z,0
2016-01-26T03:45:19.570Z,0
2016-01-26T03:46:19.698Z,0
2016-01-26T03:47:19.716Z,0
2016-01-26T03:48:19.738Z,0
2016-01-26T03:49:19.818Z,0
2016-01-26T03:50:19.883Z,0
2016-01-26T03:51:19.903Z,0
2016-01-26T03:52:19.999Z,0
2016-01-26T03:53:20.003Z,0
2016-01-26T03:54:20.114Z,0
2016-01-26T03:55:20.133Z,0
2016-01-26T03:56:20.170Z,0
2016-01-26T03:57:20.266Z,0
2016-01-26T03:58:20.347Z,0
2016-01-26T03:59:20.334Z,0
2016-01-26T04:00:20.417Z,0
2016-01-26T04:01:20.483Z,0
2016-01-26T04:02:20.533Z,0
2016-01-26T04:03:20.586Z,0
2016-01-26T04:04:20.666Z,0
2016-01-26T04:05:20.701Z,0
2016-01-26T04:06:20.735Z,0
2016-01-26T04:07:20.815Z,0
2016-01-26T04:08:20.914Z,0
2016-01-26T04:09:20.931Z,0
2016-01-26T04:10:20.981Z,0
2016-01-26T04:11:21.015Z,0
2016-01-26T04:12:21.097Z,0
2016-01-26T04:13:21.131Z,0
2016-01-26T04:14:21.040Z,0
2016-01-26T04:15:21.231Z,0
2016-01-26T04:16:21.327Z,0
2016-01-26T04:17:21.380Z,0
2016-01-26T04:18:21.414Z,0
2016-01-26T04:19:21.496Z,0
2016-01-26T04:20:21.499Z,0
2016-01-26T04:21:21.595Z,0
2016-01-26T04:22:21.505Z,0
2016-01-26T04:23:21.678Z,0
2016-01-26T04:24:21.745Z,0
2016-01-26T04:25:21.888Z,0
2016-01-26T04:26:21.860Z,0
2016-01-26T04:27:21.919Z,0
2016-01-26T04:28:21.984Z,0
2016-01-26T04:29:22.005Z,0
2016-01-26T04:30:22.054Z,0
2016-01-26T04:31:22.119Z,0
2016-01-26T04:32:22.201Z,0
2016-01-26T04:33:22.283Z,0
2016-01-26T04:34:22.269Z,0
2016-01-26T04:35:22.350Z,0
2016-01-26T04:36:22.431Z,0
2016-01-26T04:37:22.466Z,0
2016-01-26T04:38:22.501Z,0
2016-01-26T04:39:22.583Z,0
2016-01-26T04:40:22.632Z,0
2016-01-26T04:41:22.734Z,0
2016-01-26T04:42:22.800Z,0
2016-01-26T04:43:22.803Z,0
2016-01-26T04:44:22.868Z,0
2016-01-26T04:45:22.902Z,0
2016-01-26T04:46:22.967Z,0
2016-01-26T04:47:23.066Z,0
2016-01-26T04:48:23.053Z,0
2016-01-26T04:49:23.165Z,0
2016-01-26T04:50:23.263Z,0
2016-01-26T04:51:23.265Z,0
2016-01-26T04:52:22.535Z,0
2016-01-26T04:53:23.365Z,0
2016-01-26T04:54:23.431Z,0
2016-01-26T04:55:23.449Z,0
2016-01-26T04:56:23.535Z,0
2016-01-26T04:57:23.569Z,0
2016-01-26T04:58:23.650Z,0
2016-01-26T04:59:23.747Z,0
2016-01-26T05:00:23.734Z,0
2016-01-26T05:01:23.832Z,0
2016-01-26T05:02:23.851Z,0
2016-01-26T05:03:23.150Z,0
2016-01-26T05:04:23.983Z,0
2016-01-26T05:05:24.080Z,0
2016-01-26T05:06:24.050Z,0
2016-01-26T05:07:23.366Z,0
2016-01-26T05:08:24.214Z,0
2016-01-26T05:09:24.234Z,0
2016-01-26T05:10:24.314Z,0
2016-01-26T05:11:24.348Z,0
2016-01-26T05:12:24.257Z,0
2016-01-26T05:13:24.464Z,0
2016-01-26T05:14:24.498Z,0
2016-01-26T05:15:24.563Z,0
2016-01-26T05:16:24.677Z,0
2016-01-26T05:17:24.679Z,0
2016-01-26T05:18:24.776Z,0
2016-01-26T05:19:24.825Z,0
2016-01-26T05:20:24.830Z,0
2016-01-26T05:21:24.896Z,0
2016-01-26T05:22:24.960Z,0
2016-01-26T05:23:25.010Z,0
2016-01-26T05:24:25.107Z,0
2016-01-26T05:25:25.143Z,0
2016-01-26T05:26:25.232Z,0
2016-01-26T05:27:25.250Z,0
2016-01-26T05:28:25.286Z,0
2016-01-26T05:29:25.351Z,0
2016-01-26T05:30:25.416Z,0
2016-01-26T05:31:25.449Z,0
2016-01-26T05:32:25.516Z,0
2016-01-26T05:33:25.613Z,0
2016-01-26T05:34:25.616Z,0
2016-01-26T05:35:25.681Z,0
2016-01-26T05:36:25.730Z,0
2016-01-26T05:37:25.812Z,0
2016-01-26T05:38:25.861Z,0
2016-01-26T05:39:25.740Z,0
2016-01-26T05:40:25.947Z,0
2016-01-26T05:41:26.011Z,0
2016-01-26T05:42:26.061Z,0
2016-01-26T05:43:25.954Z,0
2016-01-26T05:44:26.208Z,0
2016-01-26T05:45:26.241Z,0
2016-01-26T05:46:26.260Z,0
2016-01-26T05:47:26.419Z,0
2016-01-26T05:48:26.405Z,0
2016-01-26T05:49:26.441Z,0
2016-01-26T05:50:26.505Z,0
2016-01-26T05:51:26.571Z,0
2016-01-26T05:52:26.622Z,0
2016-01-26T05:53:26.671Z,0
2016-01-26T05:54:27.089Z,0
2016-01-26T05:55:26.795Z,0
2016-01-26T05:56:26.829Z,0
2016-01-26T05:57:26.926Z,0
2016-01-26T05:58:27.038Z,0
2016-01-26T05:59:27.041Z,0
2016-01-26T06:00:27.060Z,0
2016-01-26T06:01:27.125Z,0
2016-01-26T06:02:27.175Z,0
2016-01-26T06:03:27.225Z,0
2016-01-26T06:04:27.277Z,0
2016-01-26T06:05:27.373Z,0
2016-01-26T06:06:27.408Z,0
2016-01-26T06:07:27.441Z,0
2016-01-26T06:08:27.538Z,0
2016-01-26T06:09:27.604Z,0
2016-01-26T06:10:27.607Z,0
2016-01-26T06:11:27.687Z,0
2016-01-26T06:12:27.769Z,0
2016-01-26T06:13:27.772Z,0
2016-01-26T06:14:27.852Z,0
2016-01-26T06:15:27.887Z,0
2016-01-26T06:16:27.953Z,0
2016-01-26T06:17:28.019Z,0
2016-01-26T06:18:28.052Z,0
2016-01-26T06:19:28.116Z,0
2016-01-26T06:20:28.198Z,0
2016-01-26T06:21:28.233Z,0
2016-01-26T06:22:28.283Z,0
2016-01-26T06:23:28.348Z,0
2016-01-26T06:24:28.413Z,0
2016-01-26T06:25:28.493Z,0
2016-01-26T06:26:28.510Z,0
2016-01-26T06:27:28.607Z,0
2016-01-26T06:28:28.642Z,0
2016-01-26T06:29:28.661Z,0
2016-01-26T06:30:28.725Z,0
2016-01-26T06:31:28.807Z,0
2016-01-26T06:32:28.841Z,0
2016-01-26T06:33:28.909Z,0
2016-01-26T06:34:29.022Z,0
2016-01-26T06:35:29.056Z,0
2016-01-26T06:36:29.044Z,0
2016-01-26T06:37:29.140Z,0
2016-01-26T06:38:29.189Z,0
2016-01-26T06:39:29.224Z,0
2016-01-26T06:40:29.293Z,0
2016-01-26T06:41:29.342Z,0
2016-01-26T06:42:29.407Z,0
2016-01-26T06:43:29.457Z,0
2016-01-26T06:44:29.554Z,0
2016-01-26T06:45:29.635Z,0
2016-01-26T06:46:29.638Z,0
2016-01-26T06:47:29.687Z,0
2016-01-26T06:48:29.738Z,0
2016-01-26T06:49:29.803Z,0
2016-01-26T06:50:29.838Z,0
2016-01-26T06:51:29.934Z,0
2016-01-26T06:52:29.953Z,0
2016-01-26T06:53:30.022Z,0
2016-01-26T06:54:30.100Z,0
2016-01-26T06:55:30.112Z,0
2016-01-26T06:56:30.301Z,0
2016-01-26T06:57:30.273Z,0
2016-01-26T06:58:30.276Z,0
2016-01-26T06:59:30.341Z,0
2016-01-26T07:00:30.407Z,0
2016-01-26T07:01:30.457Z,0
2016-01-26T07:02:30.507Z,0
2016-01-26T07:03:30.649Z,0
2016-01-26T07:04:30.637Z,0
2016-01-26T07:05:30.766Z,0
2016-01-26T07:06:30.799Z,0
2016-01-26T07:07:30.802Z,0
2016-01-26T07:08:30.868Z,0
2016-01-26T07:09:30.886Z,0
2016-01-26T07:10:30.952Z,0
2016-01-26T07:11:30.876Z,0
2016-01-26T07:12:31.101Z,0
2016-01-26T07:13:31.119Z,0
2016-01-26T07:14:31.183Z,0
2016-01-26T07:15:31.264Z,0
2016-01-26T07:16:31.283Z,0
2016-01-26T07:17:31.381Z,0
2016-01-26T07:18:31.430Z,0
2016-01-26T07:19:31.511Z,0
2016-01-26T07:20:31.514Z,0
2016-01-26T07:21:31.565Z,0
2016-01-26T07:22:31.645Z,0
2016-01-26T07:23:31.679Z,0
2016-01-26T07:24:31.730Z,0
2016-01-26T07:25:31.797Z,0
2016-01-26T07:26:31.847Z,0
2016-01-26T07:27:31.897Z,4
2016-01-26T07:28:31.978Z,0
2016-01-26T07:29:32.013Z,4
2016-01-26T07:30:32.078Z,4
2016-01-26T07:31:32.128Z,4
2016-01-26T07:32:32.193Z,4
2016-01-26T07:33:32.213Z,4
2016-01-26T07:34:32.684Z,0
2016-01-26T07:35:32.374Z,0
2016-01-26T07:36:32.494Z,4
2016-01-26T07:37:32.465Z,4
2016-01-26T07:38:32.577Z,4
2016-01-26T07:39:32.596Z,4
2016-01-26T07:40:32.615Z,4
2016-01-26T07:41:32.679Z,4
2016-01-26T07:42:32.745Z,4
2016-01-26T07:43:32.779Z,4
2016-01-26T07:44:32.828Z,4
2016-01-26T07:45:32.989Z,4
2016-01-26T07:46:32.992Z,4
2016-01-26T07:47:33.010Z,4
2016-01-26T07:48:33.075Z,4
2016-01-26T07:49:33.125Z,4
2016-01-26T07:50:33.176Z,4
2016-01-26T07:51:33.225Z,4
2016-01-26T07:52:33.316Z,4
2016-01-26T07:53:33.343Z,4
2016-01-26T07:54:33.361Z,4
2016-01-26T07:55:33.450Z,4
2016-01-26T07:56:33.490Z,4
2016-01-26T07:57:33.536Z,4
2016-01-26T07:58:33.566Z,4
2016-01-26T07:59:33.613Z,4
2016-01-26T08:00:33.674Z,4
2016-01-26T08:01:33.752Z,4
2016-01-26T08:02:33.817Z,0
2016-01-26T08:03:33.552Z,0
2016-01-26T08:04:33.912Z,0
2016-01-26T08:05:33.932Z,4
2016-01-26T08:06:33.996Z,4
2016-01-26T08:07:34.060Z,4
2016-01-26T08:08:34.109Z,4
2016-01-26T08:09:34.175Z,4
2016-01-26T08:10:34.224Z,4
2016-01-26T08:11:34.273Z,4
2016-01-26T08:12:34.339Z,4
2016-01-26T08:13:34.388Z,4
2016-01-26T08:14:34.422Z,4
2016-01-26T08:15:34.502Z,4
2016-01-26T08:16:34.536Z,4
2016-01-26T08:17:34.587Z,16
2016-01-26T08:18:34.684Z,16
2016-01-26T08:19:34.796Z,28
2016-01-26T08:20:34.751Z,32
2016-01-26T08:21:34.833Z,32
2016-01-26T08:22:34.882Z,44
2016-01-26T08:23:34.917Z,48
2016-01-26T08:24:34.998Z,104
2016-01-26T08:25:35.117Z,64
2016-01-26T08:26:35.197Z,44
2016-01-26T08:27:35.169Z,40
2016-01-26T08:28:35.219Z,32
2016-01-26T08:29:35.285Z,52
2016-01-26T08:30:35.319Z,68
2016-01-26T08:31:35.384Z,52
2016-01-26T08:32:35.590Z,40
2016-01-26T08:33:35.486Z,32
2016-01-26T08:34:35.553Z,24
2016-01-26T08:35:35.617Z,12
2016-01-26T08:36:35.667Z,36
2016-01-26T08:37:35.702Z,24
2016-01-26T08:38:35.771Z,28
2016-01-26T08:39:35.852Z,24
2016-01-26T08:40:35.870Z,24
2016-01-26T08:41:35.923Z,20
2016-01-26T08:42:36.004Z,28
2016-01-26T08:43:36.053Z,16
2016-01-26T08:44:36.102Z,12
2016-01-26T08:45:36.167Z,16
2016-01-26T08:46:36.219Z,16
2016-01-26T08:47:36.269Z,12
2016-01-26T08:48:36.333Z,16
2016-01-26T08:49:36.445Z,16
2016-01-26T08:50:36.514Z,16
2016-01-26T08:51:36.501Z,20
2016-01-26T08:52:36.535Z,20
2016-01-26T08:53:36.610Z,20
2016-01-26T08:54:36.660Z,20
2016-01-26T08:55:36.773Z,20
2016-01-26T08:56:36.853Z,20
2016-01-26T08:57:36.825Z,20
2016-01-26T08:58:36.879Z,20
2016-01-26T08:59:36.928Z,20
2016-01-26T09:00:37.024Z,20
2016-01-26T09:01:37.089Z,20
2016-01-26T09:02:37.108Z,20
2016-01-26T09:03:37.127Z,16
2016-01-26T09:04:37.207Z,12
2016-01-26T09:05:37.290Z,16
2016-01-26T09:06:37.308Z,12
2016-01-26T09:07:37.311Z,16
2016-01-26T09:08:37.517Z,16
2016-01-26T09:09:37.456Z,16
2016-01-26T09:10:37.506Z,16
2016-01-26T09:11:37.602Z,16
2016-01-26T09:12:37.636Z,16
2016-01-26T09:13:37.672Z,12
2016-01-26T09:14:37.757Z,16
2016-01-26T09:15:37.899Z,16
2016-01-26T09:16:37.699Z,16
2016-01-26T09:17:37.920Z,16
2016-01-26T09:18:37.829Z,12
2016-01-26T09:19:37.998Z,16
2016-01-26T09:20:38.064Z,16
2016-01-26T09:21:38.159Z,16
2016-01-26T09:22:38.175Z,16
2016-01-26T09:23:38.242Z,16
2016-01-26T09:24:38.306Z,16
2016-01-26T09:25:38.356Z,16
2016-01-26T09:26:38.421Z,16
2016-01-26T09:27:38.440Z,16
2016-01-26T09:28:38.521Z,16
2016-01-26T09:29:38.576Z,16
2016-01-26T09:30:38.625Z,16
2016-01-26T09:31:38.660Z,16
2016-01-26T09:32:38.740Z,16
2016-01-26T09:33:38.789Z,12
2016-01-26T09:34:38.839Z,16
2016-01-26T09:35:38.921Z,20
2016-01-26T09:36:39.001Z,16
2016-01-26T09:37:38.973Z,16
2016-01-26T09:38:39.051Z,16
2016-01-26T09:39:39.116Z,16
2016-01-26T09:40:39.197Z,16
2016-01-26T09:41:39.199Z,16
2016-01-26T09:42:39.248Z,8
2016-01-26T09:43:39.331Z,16
2016-01-26T09:44:39.395Z,20
2016-01-26T09:45:39.429Z,16
2016-01-26T09:46:39.338Z,20
2016-01-26T09:47:39.544Z,20
2016-01-26T09:48:39.581Z,20
2016-01-26T09:49:39.647Z,20
2016-01-26T09:50:39.696Z,16
2016-01-26T09:51:39.793Z,24
2016-01-26T09:52:39.796Z,16
2016-01-26T09:53:39.876Z,20
2016-01-26T09:54:39.935Z,20
2016-01-26T09:55:39.999Z,20
2016-01-26T09:56:40.019Z,16
2016-01-26T09:57:40.099Z,16
2016-01-26T09:58:39.993Z,20
2016-01-26T09:59:40.199Z,20
2016-01-26T10:00:40.249Z,20
2016-01-26T10:01:40.314Z,16
2016-01-26T10:02:40.333Z,20
2016-01-26T10:03:40.430Z,20
2016-01-26T10:04:40.464Z,20
2016-01-26T10:05:40.529Z,24
2016-01-26T10:06:40.594Z,24
2016-01-26T10:07:40.614Z,24
2016-01-26T10:08:40.695Z,24
2016-01-26T10:09:40.743Z,24
2016-01-26T10:10:40.794Z,24
2016-01-26T10:11:40.859Z,24
2016-01-26T10:12:40.925Z,28
2016-01-26T10:13:40.943Z,24
2016-01-26T10:14:41.009Z,28
2016-01-26T10:15:41.105Z,28
2016-01-26T10:16:41.108Z,28
2016-01-26T10:17:41.267Z,28
2016-01-26T10:18:41.255Z,32
2016-01-26T10:19:41.292Z,28
2016-01-26T10:20:41.341Z,32
2016-01-26T10:21:41.375Z,28
2016-01-26T10:22:41.455Z,28
2016-01-26T10:23:41.538Z,28
2016-01-26T10:24:41.559Z,32
2016-01-26T10:25:41.890Z,32
2016-01-26T10:26:41.677Z,28
2016-01-26T10:27:41.727Z,36
2016-01-26T10:28:41.778Z,36
2016-01-26T10:29:41.858Z,36
2016-01-26T10:30:41.877Z,32
2016-01-26T10:31:41.957Z,36
2016-01-26T10:32:41.993Z,32
2016-01-26T10:33:42.042Z,28
2016-01-26T10:34:42.122Z,32
2016-01-26T10:35:42.172Z,32
2016-01-26T10:36:42.206Z,32
2016-01-26T10:37:42.304Z,32
2016-01-26T10:38:42.354Z,28
2016-01-26T10:39:42.373Z,28
2016-01-26T10:40:42.443Z,28
2016-01-26T10:41:42.507Z,32
2016-01-26T10:42:42.557Z,32
2016-01-26T10:43:42.607Z,32
2016-01-26T10:44:42.642Z,32
2016-01-26T10:45:42.738Z,32
2016-01-26T10:46:42.772Z,32
2016-01-26T10:47:42.822Z,32
2016-01-26T10:48:42.903Z,32
2016-01-26T10:49:42.957Z,36
2016-01-26T10:50:42.975Z,36
2016-01-26T10:51:43.042Z,32
2016-01-26T10:52:43.123Z,36
2016-01-26T10:53:43.150Z,36
2016-01-26T10:54:43.199Z,36
2016-01-26T10:55:43.281Z,36
2016-01-26T10:56:43.316Z,40
2016-01-26T10:57:43.366Z,32
2016-01-26T10:58:43.446Z,28
2016-01-26T10:59:43.516Z,32
2016-01-26T11:00:43.550Z,32
2016-01-26T11:01:43.589Z,32
2016-01-26T11:02:43.654Z,32
2016-01-26T11:03:43.688Z,28
2016-01-26T11:04:43.771Z,24
2016-01-26T11:05:43.820Z,20
2016-01-26T11:06:43.869Z,16
2016-01-26T11:07:43.936Z,16
2016-01-26T11:08:43.985Z,16
2016-01-26T11:09:44.051Z,12
2016-01-26T11:10:44.100Z,16
2016-01-26T11:11:44.135Z,16
2016-01-26T11:12:44.200Z,16
2016-01-26T11:13:44.265Z,16
2016-01-26T11:14:44.299Z,12
2016-01-26T11:15:44.380Z,12
2016-01-26T11:16:44.431Z,12
2016-01-26T11:17:44.465Z,12
2016-01-26T11:18:44.547Z,8
2016-01-26T11:19:44.611Z,12
2016-01-26T11:20:44.630Z,8
2016-01-26T11:21:44.727Z,12
2016-01-26T11:22:44.744Z,12
2016-01-26T11:23:44.799Z,16
2016-01-26T11:24:44.879Z,16
2016-01-26T11:25:44.931Z,16
2016-01-26T11:26:44.964Z,16
2016-01-26T11:27:45.030Z,16
2016-01-26T11:28:45.080Z,16
2016-01-26T11:29:45.129Z,20
2016-01-26T11:30:45.196Z,16
2016-01-26T11:31:45.245Z,16
2016-01-26T11:32:45.310Z,12
2016-01-26T11:33:45.376Z,8
2016-01-26T11:34:45.395Z,8
2016-01-26T11:35:45.508Z,8
2016-01-26T11:36:45.512Z,12
2016-01-26T11:37:45.581Z,16
2016-01-26T11:38:45.646Z,12
2016-01-26T11:39:45.695Z,12
2016-01-26T11:40:45.760Z,16
2016-01-26T11:41:45.811Z,16
2016-01-26T11:42:45.876Z,12
2016-01-26T11:43:45.910Z,16
2016-01-26T11:44:46.009Z,12
2016-01-26T11:45:46.027Z,16
2016-01-26T11:46:46.093Z,16
2016-01-26T11:47:46.127Z,12
2016-01-26T11:48:46.161Z,12
2016-01-26T11:49:46.260Z,12
2016-01-26T11:50:46.324Z,12
2016-01-26T11:51:46.346Z,8
2016-01-26T11:52:46.410Z,8
2016-01-26T11:53:46.479Z,8
2016-01-26T11:54:46.527Z,12
2016-01-26T11:55:46.577Z,12
2016-01-26T11:56:46.627Z,8
2016-01-26T11:57:46.677Z,8
2016-01-26T11:58:46.716Z,8
2016-01-26T11:59:46.781Z,8
2016-01-26T12:00:46.862Z,8
2016-01-26T12:01:46.927Z,8
2016-01-26T12:02:46.947Z,8
2016-01-26T12:03:47.023Z,4
2016-01-26T12:04:47.089Z,8
2016-01-26T12:05:47.124Z,4
2016-01-26T12:06:47.173Z,4
2016-01-26T12:07:47.238Z,4
2016-01-26T12:08:47.272Z,8
2016-01-26T12:09:47.322Z,4
2016-01-26T12:10:47.418Z,4
2016-01-26T12:11:47.467Z,4
2016-01-26T12:12:47.517Z,4
2016-01-26T12:13:47.568Z,4
2016-01-26T12:14:47.605Z,4
2016-01-26T12:15:47.685Z,4
2016-01-26T12:16:47.719Z,4
2016-01-26T12:17:47.786Z,8
2016-01-26T12:18:47.866Z,8
2016-01-26T12:19:47.900Z,8
2016-01-26T12:20:47.934Z,4
2016-01-26T12:21:48.031Z,8
2016-01-26T12:22:48.081Z,8
2016-01-26T12:23:48.100Z,8
2016-01-26T12:24:48.212Z,4
2016-01-26T12:25:48.246Z,8
2016-01-26T12:26:48.296Z,8
2016-01-26T12:27:48.329Z,8
2016-01-26T12:28:48.379Z,8
2016-01-26T12:29:48.479Z,4
2016-01-26T12:30:48.497Z,4
2016-01-26T12:31:48.546Z,4
2016-01-26T12:32:48.627Z,8
2016-01-26T12:33:48.677Z,4
2016-01-26T12:34:48.712Z,4
2016-01-26T12:35:48.808Z,8
2016-01-26T12:36:48.874Z,4
2016-01-26T12:37:48.908Z,4
2016-01-26T12:38:48.942Z,4
2016-01-26T12:39:49.039Z,4
2016-01-26T12:40:49.073Z,8
2016-01-26T12:41:49.097Z,4
2016-01-26T12:42:49.161Z,8
2016-01-26T12:43:49.232Z,4
2016-01-26T12:44:49.250Z,4
2016-01-26T12:45:49.331Z,4
2016-01-26T12:46:49.397Z,4
2016-01-26T12:47:49.431Z,4
2016-01-26T12:48:49.513Z,4
2016-01-26T12:49:49.562Z,4
2016-01-26T12:50:49.581Z,4
2016-01-26T12:51:49.678Z,4
2016-01-26T12:52:49.533Z,4
2016-01-26T12:53:49.785Z,8
2016-01-26T12:54:49.851Z,4
2016-01-26T12:55:49.886Z,4
2016-01-26T12:56:49.936Z,8
2016-01-26T12:57:50.000Z,8
2016-01-26T12:58:50.034Z,4
2016-01-26T12:59:50.100Z,8
2016-01-26T13:00:50.151Z,8
2016-01-26T13:01:50.200Z,12
2016-01-26T13:02:50.250Z,12
2016-01-26T13:03:50.316Z,12
2016-01-26T13:04:50.380Z,12
2016-01-26T13:05:50.430Z,12
2016-01-26T13:06:50.467Z,12
2016-01-26T13:07:50.549Z,12
2016-01-26T13:08:50.599Z,12
2016-01-26T13:09:50.633Z,8
2016-01-26T13:10:50.697Z,8
2016-01-26T13:11:50.796Z,12
2016-01-26T13:12:50.798Z,16
2016-01-26T13:13:50.847Z,12
2016-01-26T13:14:50.959Z,8
2016-01-26T13:15:50.994Z,12
2016-01-26T13:16:51.044Z,8
2016-01-26T13:17:51.094Z,8
2016-01-26T13:18:51.127Z,8
2016-01-26T13:19:51.209Z,8
2016-01-26T13:20:51.258Z,8
2016-01-26T13:21:51.340Z,8
2016-01-26T13:22:51.357Z,12
2016-01-26T13:23:51.415Z,12
2016-01-26T13:24:51.464Z,8
2016-01-26T13:25:51.560Z,8
2016-01-26T13:26:51.578Z,8
2016-01-26T13:27:51.632Z,8
2016-01-26T13:28:51.713Z,8
2016-01-26T13:29:51.747Z,16
2016-01-26T13:30:51.827Z,16
2016-01-26T13:31:51.862Z,16
2016-01-26T13:32:51.912Z,24
2016-01-26T13:33:51.977Z,32
2016-01-26T13:34:52.043Z,32
2016-01-26T13:35:52.082Z,36
2016-01-26T13:36:52.162Z,32
2016-01-26T13:37:52.212Z,28
2016-01-26T13:38:52.229Z,24
2016-01-26T13:39:52.297Z,20
2016-01-26T13:40:52.752Z,20
2016-01-26T13:41:52.396Z,20
2016-01-26T13:42:52.477Z,20
2016-01-26T13:43:52.354Z,20
2016-01-26T13:44:52.592Z,20
2016-01-26T13:45:52.641Z,24
2016-01-26T13:46:52.675Z,24
2016-01-26T13:47:52.741Z,24
2016-01-26T13:48:52.806Z,20
2016-01-26T13:49:52.840Z,24
2016-01-26T13:50:52.906Z,20
2016-01-26T13:51:52.972Z,16
2016-01-26T13:52:53.021Z,20
2016-01-26T13:53:53.064Z,16
2016-01-26T13:54:53.130Z,12
2016-01-26T13:55:53.179Z,12
2016-01-26T13:56:53.369Z,12
2016-01-26T13:57:53.278Z,12
2016-01-26T13:58:53.328Z,12
2016-01-26T13:59:53.455Z,12
2016-01-26T14:00:53.505Z,16
2016-01-26T14:01:53.493Z,20
2016-01-26T14:02:53.575Z,20
2016-01-26T14:03:53.640Z,24
2016-01-26T14:04:53.673Z,20
2016-01-26T14:05:53.740Z,20
2016-01-26T14:06:53.821Z,24
2016-01-26T14:07:53.855Z,28
2016-01-26T14:08:53.904Z,28
2016-01-26T14:09:53.939Z,28
2016-01-26T14:10:54.192Z,28
2016-01-26T14:11:54.055Z,28
2016-01-26T14:12:54.107Z,28
2016-01-26T14:13:54.189Z,20
2016-01-26T14:14:54.067Z,24
2016-01-26T14:15:54.272Z,28
2016-01-26T14:16:54.339Z,28
2016-01-26T14:17:54.406Z,20
2016-01-26T14:18:54.440Z,20
2016-01-26T14:19:54.504Z,20
2016-01-26T14:20:54.569Z,20
2016-01-26T14:21:54.619Z,20
2016-01-26T14:22:54.668Z,20
2016-01-26T14:23:54.733Z,24
2016-01-26T14:24:54.784Z,20
2016-01-26T14:25:54.849Z,24
2016-01-26T14:26:54.931Z,20
2016-01-26T14:27:55.090Z,24
2016-01-26T14:28:55.295Z,24
2016-01-26T14:29:55.079Z,24
2016-01-26T14:30:55.115Z,24
2016-01-26T14:31:55.180Z,24
2016-01-26T14:32:55.683Z,24
2016-01-26T14:33:55.281Z,20
2016-01-26T14:34:55.345Z,20
2016-01-26T14:35:55.379Z,20
2016-01-26T14:36:55.429Z,24